Berlin, Georgia
Current Conditions -  °F | °C
As of 4:35 PM on Wednesday 26 Nov 2014 (Local Time) from KMGR Reporting Station
Clear Clear  
Wind Chill: 57°   Ceiling: Unl
Heat Index: 57°   Visibility: 10mi
Dew Point: 32°   Wind: 6mph
Humidity: 38%   Direction: 280°W
Pressure: 30.16"   Gusts: NA
Location:  31.07°N, 83.62°W
Report Text: KMGR 262135Z AUTO 28005KT 10SM CLR 14/00 A3016 RMK AO2
Loading
Personal Weather Stations






























Interactive Weather Map New forecast layout! Learn more

10-Day Weather Forecast

Advertisements
Track Severe Weather on mobile